sensor_id;sensor_type;location;lat;lon;timestamp;temperature;humidity
45283;DHT22;31023;44.994;1.796;2023-02-21T09:42:31;10.90;82.10
45283;DHT22;31023;44.994;1.796;2023-02-21T09:44:57;10.90;81.80
45283;DHT22;31023;44.994;1.796;2023-02-21T09:47:29;10.90;80.30
45283;DHT22;31023;44.994;1.796;2023-02-21T09:50:06;10.90;80.00
45283;DHT22;31023;44.994;1.796;2023-02-21T09:52:37;10.90;80.10
45283;DHT22;31023;44.994;1.796;2023-02-21T09:55:35;10.70;80.90
45283;DHT22;31023;44.994;1.796;2023-02-21T09:58:02;10.70;80.70
45283;DHT22;31023;44.994;1.796;2023-02-21T10:00:33;10.80;80.70
45283;DHT22;31023;44.994;1.796;2023-02-21T10:03:07;10.80;79.40
45283;DHT22;31023;44.994;1.796;2023-02-21T10:08:53;11.30;78.50
45283;DHT22;31023;44.994;1.796;2023-02-21T10:11:54;11.40;78.30
45283;DHT22;31023;44.994;1.796;2023-02-21T10:14:46;11.20;77.60
45283;DHT22;31023;44.994;1.796;2023-02-21T10:20:02;11.10;78.40
45283;DHT22;31023;44.994;1.796;2023-02-21T10:22:35;11.10;79.00
45283;DHT22;31023;44.994;1.796;2023-02-21T10:25:22;11.20;80.20
45283;DHT22;31023;44.994;1.796;2023-02-21T10:27:48;11.30;79.00
45283;DHT22;31023;44.994;1.796;2023-02-21T10:30:29;11.30;78.00
45283;DHT22;31023;44.994;1.796;2023-02-21T10:32:56;11.30;78.30
45283;DHT22;31023;44.994;1.796;2023-02-21T10:35:22;11.40;79.00
45283;DHT22;31023;44.994;1.796;2023-02-21T10:37:58;11.40;78.00
45283;DHT22;31023;44.994;1.796;2023-02-21T10:45:44;11.70;77.60
45283;DHT22;31023;44.994;1.796;2023-02-21T10:48:12;11.80;77.60
45283;DHT22;31023;44.994;1.796;2023-02-21T10:53:26;12.00;77.50
45283;DHT22;31023;44.994;1.796;2023-02-21T10:59:05;11.70;77.90
45283;DHT22;31023;44.994;1.796;2023-02-21T11:01:41;11.80;79.40
45283;DHT22;31023;44.994;1.796;2023-02-21T11:06:51;11.90;78.40
45283;DHT22;31023;44.994;1.796;2023-02-21T11:12:18;12.10;78.90
45283;DHT22;31023;44.994;1.796;2023-02-21T11:15:21;12.20;79.10
45283;DHT22;31023;44.994;1.796;2023-02-21T11:18:05;12.30;79.80
45283;DHT22;31023;44.994;1.796;2023-02-21T11:20:35;12.40;79.10
45283;DHT22;31023;44.994;1.796;2023-02-21T11:23:01;12.50;81.20
45283;DHT22;31023;44.994;1.796;2023-02-21T11:25:32;12.60;82.90
45283;DHT22;31023;44.994;1.796;2023-02-21T11:33:12;13.10;81.80
45283;DHT22;31023;44.994;1.796;2023-02-21T11:35:46;13.20;83.40
45283;DHT22;31023;44.994;1.796;2023-02-21T11:38:36;13.30;82.80
45283;DHT22;31023;44.994;1.796;2023-02-21T11:41:21;13.40;84.90
45283;DHT22;31023;44.994;1.796;2023-02-21T11:43:51;13.50;86.60
45283;DHT22;31023;44.994;1.796;2023-02-21T11:54:08;13.50;84.00
45283;DHT22;31023;44.994;1.796;2023-02-21T11:56:59;13.60;84.20
45283;DHT22;31023;44.994;1.796;2023-02-21T12:02:40;13.70;81.50
45283;DHT22;31023;44.994;1.796;2023-02-21T12:24:09;14.30;75.80
45283;DHT22;31023;44.994;1.796;2023-02-21T12:26:54;14.30;74.30
45283;DHT22;31023;44.994;1.796;2023-02-21T12:29:35;14.20;75.20
45283;DHT22;31023;44.994;1.796;2023-02-21T12:40:03;14.20;75.20
45283;DHT22;31023;44.994;1.796;2023-02-21T12:48:14;14.40;75.30
45283;DHT22;31023;44.994;1.796;2023-02-21T12:50:45;14.50;77.00
45283;DHT22;31023;44.994;1.796;2023-02-21T12:58:58;14.60;76.00
45283;DHT22;31023;44.994;1.796;2023-02-21T13:01:31;14.40;76.30
45283;DHT22;31023;44.994;1.796;2023-02-21T13:07:04;14.20;75.90
45283;DHT22;31023;44.994;1.796;2023-02-21T13:09:59;14.20;75.00
45283;DHT22;31023;44.994;1.796;2023-02-21T13:15:19;14.20;77.00
45283;DHT22;31023;44.994;1.796;2023-02-21T13:18:32;14.30;77.40
45283;DHT22;31023;44.994;1.796;2023-02-21T13:30:44;14.30;75.50
45283;DHT22;31023;44.994;1.796;2023-02-21T13:32:55;14.20;75.80
45283;DHT22;31023;44.994;1.796;2023-02-21T13:35:37;14.20;74.20
45283;DHT22;31023;44.994;1.796;2023-02-21T13:38:05;14.30;74.80
45283;DHT22;31023;44.994;1.796;2023-02-21T13:40:52;14.30;74.60
45283;DHT22;31023;44.994;1.796;2023-02-21T13:43:28;14.30;75.50
45283;DHT22;31023;44.994;1.796;2023-02-21T13:57:40;14.50;75.70
45283;DHT22;31023;44.994;1.796;2023-02-21T14:10:49;14.20;84.00
45283;DHT22;31023;44.994;1.796;2023-02-21T14:21:45;14.00;85.20
45283;DHT22;31023;44.994;1.796;2023-02-21T14:24:20;14.00;87.20
45283;DHT22;31023;44.994;1.796;2023-02-21T14:26:55;14.00;85.40
45283;DHT22;31023;44.994;1.796;2023-02-21T14:29:37;14.00;86.10
45283;DHT22;31023;44.994;1.796;2023-02-21T14:39:53;14.10;84.70
45283;DHT22;31023;44.994;1.796;2023-02-21T15:01:45;14.20;85.00
45283;DHT22;31023;44.994;1.796;2023-02-21T15:09:36;14.00;85.70
45283;DHT22;31023;44.994;1.796;2023-02-21T15:12:14;14.00;83.90
45283;DHT22;31023;44.994;1.796;2023-02-21T15:14:48;14.00;84.20
45283;DHT22;31023;44.994;1.796;2023-02-21T15:17:20;14.00;83.70
45283;DHT22;31023;44.994;1.796;2023-02-21T15:20:03;14.00;83.90
45283;DHT22;31023;44.994;1.796;2023-02-21T15:22:30;14.00;82.90
45283;DHT22;31023;44.994;1.796;2023-02-21T15:27:50;13.80;81.90
45283;DHT22;31023;44.994;1.796;2023-02-21T15:33:09;13.80;82.50
45283;DHT22;31023;44.994;1.796;2023-02-21T15:35:38;13.80;80.60
45283;DHT22;31023;44.994;1.796;2023-02-21T15:38:14;13.70;80.00
45283;DHT22;31023;44.994;1.796;2023-02-21T15:40:40;13.70;79.70
45283;DHT22;31023;44.994;1.796;2023-02-21T15:43:06;13.70;79.70
45283;DHT22;31023;44.994;1.796;2023-02-21T15:45:45;13.70;79.80
45283;DHT22;31023;44.994;1.796;2023-02-21T15:48:12;13.60;79.40
45283;DHT22;31023;44.994;1.796;2023-02-21T15:50:40;13.60;80.50
45283;DHT22;31023;44.994;1.796;2023-02-21T15:53:21;13.60;80.70
45283;DHT22;31023;44.994;1.796;2023-02-21T15:55:48;13.50;81.20
45283;DHT22;31023;44.994;1.796;2023-02-21T15:58:21;13.50;80.60
45283;DHT22;31023;44.994;1.796;2023-02-21T16:01:10;13.40;81.70
45283;DHT22;31023;44.994;1.796;2023-02-21T16:03:41;13.20;81.30
45283;DHT22;31023;44.994;1.796;2023-02-21T16:06:14;13.20;82.20
45283;DHT22;31023;44.994;1.796;2023-02-21T16:08:57;13.00;82.20
45283;DHT22;31023;44.994;1.796;2023-02-21T16:11:42;12.90;82.20
45283;DHT22;31023;44.994;1.796;2023-02-21T16:17:13;12.70;81.80
45283;DHT22;31023;44.994;1.796;2023-02-21T16:19:43;12.70;81.80
45283;DHT22;31023;44.994;1.796;2023-02-21T16:27:52;12.70;81.70
45283;DHT22;31023;44.994;1.796;2023-02-21T16:30:24;12.70;81.70
45283;DHT22;31023;44.994;1.796;2023-02-21T16:32:52;12.60;82.00
45283;DHT22;31023;44.994;1.796;2023-02-21T16:35:21;12.70;81.90
45283;DHT22;31023;44.994;1.796;2023-02-21T16:37:49;12.70;81.70
45283;DHT22;31023;44.994;1.796;2023-02-21T16:40:31;12.70;81.80
45283;DHT22;31023;44.994;1.796;2023-02-21T16:42:58;12.70;81.70
45283;DHT22;31023;44.994;1.796;2023-02-21T16:45:25;12.60;81.80
45283;DHT22;31023;44.994;1.796;2023-02-21T16:48:12;12.60;81.90
45283;DHT22;31023;44.994;1.796;2023-02-21T16:50:39;12.60;82.00
45283;DHT22;31023;44.994;1.796;2023-02-21T16:53:05;12.70;82.00
45283;DHT22;31023;44.994;1.796;2023-02-21T16:55:31;12.70;82.30
45283;DHT22;31023;44.994;1.796;2023-02-21T16:58:02;12.60;82.00
45283;DHT22;31023;44.994;1.796;2023-02-21T17:00:29;12.60;82.20
45283;DHT22;31023;44.994;1.796;2023-02-21T17:02:55;12.60;82.40
45283;DHT22;31023;44.994;1.796;2023-02-21T17:05:21;12.60;82.40
45283;DHT22;31023;44.994;1.796;2023-02-21T17:07:49;12.50;82.70
45283;DHT22;31023;44.994;1.796;2023-02-21T17:10:18;12.50;82.60
45283;DHT22;31023;44.994;1.796;2023-02-21T17:12:44;12.40;82.70
45283;DHT22;31023;44.994;1.796;2023-02-21T17:15:09;12.50;84.60
45283;DHT22;31023;44.994;1.796;2023-02-21T17:17:39;12.50;84.40
45283;DHT22;31023;44.994;1.796;2023-02-21T17:20:06;12.40;84.30
45283;DHT22;31023;44.994;1.796;2023-02-21T17:22:32;12.30;84.60
45283;DHT22;31023;44.994;1.796;2023-02-21T17:24:58;12.20;85.00
45283;DHT22;31023;44.994;1.796;2023-02-21T17:27:24;12.10;85.20
45283;DHT22;31023;44.994;1.796;2023-02-21T17:29:50;12.10;85.80
45283;DHT22;31023;44.994;1.796;2023-02-21T17:32:16;12.00;86.70
45283;DHT22;31023;44.994;1.796;2023-02-21T17:34:42;11.90;86.80
45283;DHT22;31023;44.994;1.796;2023-02-21T17:37:08;11.80;86.50
45283;DHT22;31023;44.994;1.796;2023-02-21T17:39:34;11.60;86.70
45283;DHT22;31023;44.994;1.796;2023-02-21T17:42:01;11.50;86.80
45283;DHT22;31023;44.994;1.796;2023-02-21T17:44:26;11.50;86.90
45283;DHT22;31023;44.994;1.796;2023-02-21T17:46:54;11.40;87.30
45283;DHT22;31023;44.994;1.796;2023-02-21T17:49:23;11.50;87.20
45283;DHT22;31023;44.994;1.796;2023-02-21T17:51:49;11.50;87.00
45283;DHT22;31023;44.994;1.796;2023-02-21T17:54:16;11.60;86.80
45283;DHT22;31023;44.994;1.796;2023-02-21T17:56:42;11.60;86.80
45283;DHT22;31023;44.994;1.796;2023-02-21T17:59:08;11.60;86.80
45283;DHT22;31023;44.994;1.796;2023-02-21T18:01:34;11.60;86.80
45283;DHT22;31023;44.994;1.796;2023-02-21T18:04:00;11.50;86.70
45283;DHT22;31023;44.994;1.796;2023-02-21T18:06:27;11.60;86.70
45283;DHT22;31023;44.994;1.796;2023-02-21T18:08:53;11.60;86.50
45283;DHT22;31023;44.994;1.796;2023-02-21T18:11:20;11.60;86.40
45283;DHT22;31023;44.994;1.796;2023-02-21T18:13:47;11.60;86.20
45283;DHT22;31023;44.994;1.796;2023-02-21T18:16:13;11.70;86.10
45283;DHT22;31023;44.994;1.796;2023-02-21T18:18:38;11.70;86.10
45283;DHT22;31023;44.994;1.796;2023-02-21T18:21:05;11.70;86.20
45283;DHT22;31023;44.994;1.796;2023-02-21T18:23:32;11.80;86.10
45283;DHT22;31023;44.994;1.796;2023-02-21T18:25:58;11.80;85.90
45283;DHT22;31023;44.994;1.796;2023-02-21T18:28:25;11.80;85.90
45283;DHT22;31023;44.994;1.796;2023-02-21T18:30:51;11.70;85.90
45283;DHT22;31023;44.994;1.796;2023-02-21T18:33:19;11.80;85.90
45283;DHT22;31023;44.994;1.796;2023-02-21T18:35:44;11.80;85.80
45283;DHT22;31023;44.994;1.796;2023-02-21T18:38:10;11.80;86.00
45283;DHT22;31023;44.994;1.796;2023-02-21T18:40:37;11.80;85.80
45283;DHT22;31023;44.994;1.796;2023-02-21T18:43:24;11.90;85.60
45283;DHT22;31023;44.994;1.796;2023-02-21T18:45:52;11.80;85.90
45283;DHT22;31023;44.994;1.796;2023-02-21T18:48:18;11.80;86.10
45283;DHT22;31023;44.994;1.796;2023-02-21T18:50:44;11.80;86.20
45283;DHT22;31023;44.994;1.796;2023-02-21T18:53:10;11.80;86.30
45283;DHT22;31023;44.994;1.796;2023-02-21T18:55:36;11.70;86.50
45283;DHT22;31023;44.994;1.796;2023-02-21T18:58:20;11.70;86.40
45283;DHT22;31023;44.994;1.796;2023-02-21T19:03:48;11.80;86.40
45283;DHT22;31023;44.994;1.796;2023-02-21T19:06:16;11.70;86.40
45283;DHT22;31023;44.994;1.796;2023-02-21T19:08:43;11.70;86.40
45283;DHT22;31023;44.994;1.796;2023-02-21T19:11:11;11.70;86.60
45283;DHT22;31023;44.994;1.796;2023-02-21T19:13:38;11.70;86.50
45283;DHT22;31023;44.994;1.796;2023-02-21T19:16:04;11.80;86.70
45283;DHT22;31023;44.994;1.796;2023-02-21T19:18:30;11.80;86.80
45283;DHT22;31023;44.994;1.796;2023-02-21T19:20:56;11.80;88.40
45283;DHT22;31023;44.994;1.796;2023-02-21T19:23:22;11.70;87.80
45283;DHT22;31023;44.994;1.796;2023-02-21T19:25:49;11.70;87.70
45283;DHT22;31023;44.994;1.796;2023-02-21T19:28:14;11.80;87.40
45283;DHT22;31023;44.994;1.796;2023-02-21T19:30:40;11.70;87.70
45283;DHT22;31023;44.994;1.796;2023-02-21T19:33:07;11.80;88.10
45283;DHT22;31023;44.994;1.796;2023-02-21T19:35:33;11.60;88.80
45283;DHT22;31023;44.994;1.796;2023-02-21T19:38:04;11.50;89.40
45283;DHT22;31023;44.994;1.796;2023-02-21T19:40:30;11.40;89.90
45283;DHT22;31023;44.994;1.796;2023-02-21T19:42:56;11.40;89.80
45283;DHT22;31023;44.994;1.796;2023-02-21T19:45:22;11.50;89.70
45283;DHT22;31023;44.994;1.796;2023-02-21T19:47:48;11.40;89.90
45283;DHT22;31023;44.994;1.796;2023-02-21T19:50:14;11.40;90.10
45283;DHT22;31023;44.994;1.796;2023-02-21T19:52:39;11.40;90.10
45283;DHT22;31023;44.994;1.796;2023-02-21T19:55:06;11.30;90.20
45283;DHT22;31023;44.994;1.796;2023-02-21T19:57:32;11.30;90.30
45283;DHT22;31023;44.994;1.796;2023-02-21T19:59:57;11.30;90.50
45283;DHT22;31023;44.994;1.796;2023-02-21T20:02:23;11.30;90.60
45283;DHT22;31023;44.994;1.796;2023-02-21T20:04:49;11.30;90.40
45283;DHT22;31023;44.994;1.796;2023-02-21T20:07:16;11.30;90.40
45283;DHT22;31023;44.994;1.796;2023-02-21T20:09:42;11.30;90.20
45283;DHT22;31023;44.994;1.796;2023-02-21T20:12:09;11.40;89.90
45283;DHT22;31023;44.994;1.796;2023-02-21T20:14:35;11.40;89.70
45283;DHT22;31023;44.994;1.796;2023-02-21T20:17:01;11.50;89.10
45283;DHT22;31023;44.994;1.796;2023-02-21T20:19:27;11.40;89.20
45283;DHT22;31023;44.994;1.796;2023-02-21T20:21:55;11.40;88.90
45283;DHT22;31023;44.994;1.796;2023-02-21T20:24:20;11.50;89.10
45283;DHT22;31023;44.994;1.796;2023-02-21T20:26:50;11.50;88.90
45283;DHT22;31023;44.994;1.796;2023-02-21T20:29:18;11.50;88.90
45283;DHT22;31023;44.994;1.796;2023-02-21T20:31:44;11.50;88.90
45283;DHT22;31023;44.994;1.796;2023-02-21T20:34:10;11.50;89.20
45283;DHT22;31023;44.994;1.796;2023-02-21T20:36:38;11.50;89.80
45283;DHT22;31023;44.994;1.796;2023-02-21T20:39:06;11.60;89.70
45283;DHT22;31023;44.994;1.796;2023-02-21T20:41:33;11.50;90.20
45283;DHT22;31023;44.994;1.796;2023-02-21T20:44:00;11.50;90.30
45283;DHT22;31023;44.994;1.796;2023-02-21T20:46:26;11.40;90.30
45283;DHT22;31023;44.994;1.796;2023-02-21T20:48:53;11.40;90.30
45283;DHT22;31023;44.994;1.796;2023-02-21T20:51:35;11.40;90.20
45283;DHT22;31023;44.994;1.796;2023-02-21T20:54:02;11.50;90.40
45283;DHT22;31023;44.994;1.796;2023-02-21T20:56:34;11.40;90.60
45283;DHT22;31023;44.994;1.796;2023-02-21T20:59:01;11.50;90.70
45283;DHT22;31023;44.994;1.796;2023-02-21T21:01:27;11.50;91.00
45283;DHT22;31023;44.994;1.796;2023-02-21T21:03:53;11.50;91.40
45283;DHT22;31023;44.994;1.796;2023-02-21T21:06:20;11.50;91.30
45283;DHT22;31023;44.994;1.796;2023-02-21T21:08:47;11.50;91.40
45283;DHT22;31023;44.994;1.796;2023-02-21T21:11:13;11.40;91.50
45283;DHT22;31023;44.994;1.796;2023-02-21T21:13:39;11.50;91.70
45283;DHT22;31023;44.994;1.796;2023-02-21T21:16:07;11.50;91.90
45283;DHT22;31023;44.994;1.796;2023-02-21T21:18:34;11.40;92.10
45283;DHT22;31023;44.994;1.796;2023-02-21T21:21:00;11.40;93.10
45283;DHT22;31023;44.994;1.796;2023-02-21T21:23:25;11.40;93.10
45283;DHT22;31023;44.994;1.796;2023-02-21T21:25:51;11.40;93.20
45283;DHT22;31023;44.994;1.796;2023-02-21T21:28:16;11.50;93.20
45283;DHT22;31023;44.994;1.796;2023-02-21T21:30:43;11.50;93.70
45283;DHT22;31023;44.994;1.796;2023-02-21T21:33:08;11.40;93.50
45283;DHT22;31023;44.994;1.796;2023-02-21T21:35:34;11.40;94.10
45283;DHT22;31023;44.994;1.796;2023-02-21T21:38:01;11.40;93.90
45283;DHT22;31023;44.994;1.796;2023-02-21T21:40:27;11.30;94.00
45283;DHT22;31023;44.994;1.796;2023-02-21T21:42:53;11.30;93.80
45283;DHT22;31023;44.994;1.796;2023-02-21T21:45:25;11.30;93.80
45283;DHT22;31023;44.994;1.796;2023-02-21T21:47:53;11.40;93.90
45283;DHT22;31023;44.994;1.796;2023-02-21T21:50:20;11.40;93.80
45283;DHT22;31023;44.994;1.796;2023-02-21T21:52:53;11.40;93.70
45283;DHT22;31023;44.994;1.796;2023-02-21T21:55:24;11.40;93.90
45283;DHT22;31023;44.994;1.796;2023-02-21T21:57:51;11.40;94.00
45283;DHT22;31023;44.994;1.796;2023-02-21T22:00:29;11.40;94.00
45283;DHT22;31023;44.994;1.796;2023-02-21T22:02:59;11.40;94.30
45283;DHT22;31023;44.994;1.796;2023-02-21T22:05:28;11.40;94.40
45283;DHT22;31023;44.994;1.796;2023-02-21T22:07:55;11.40;95.10
45283;DHT22;31023;44.994;1.796;2023-02-21T22:10:22;11.40;95.10
45283;DHT22;31023;44.994;1.796;2023-02-21T22:12:48;11.40;95.30
45283;DHT22;31023;44.994;1.796;2023-02-21T22:15:23;11.40;95.40
45283;DHT22;31023;44.994;1.796;2023-02-21T22:17:50;11.40;95.50
45283;DHT22;31023;44.994;1.796;2023-02-21T22:20:17;11.30;95.60
45283;DHT22;31023;44.994;1.796;2023-02-21T22:22:50;11.30;95.90
45283;DHT22;31023;44.994;1.796;2023-02-21T22:25:18;11.30;95.90
45283;DHT22;31023;44.994;1.796;2023-02-21T22:27:48;11.30;96.00
45283;DHT22;31023;44.994;1.796;2023-02-21T22:30:16;11.30;96.10
45283;DHT22;31023;44.994;1.796;2023-02-21T22:32:42;11.30;96.30
45283;DHT22;31023;44.994;1.796;2023-02-21T22:35:09;11.30;96.50
45283;DHT22;31023;44.994;1.796;2023-02-21T22:37:47;11.30;96.70
45283;DHT22;31023;44.994;1.796;2023-02-21T22:40:15;11.20;96.70
45283;DHT22;31023;44.994;1.796;2023-02-21T22:42:54;11.20;96.80
45283;DHT22;31023;44.994;1.796;2023-02-21T22:45:20;11.20;97.00
45283;DHT22;31023;44.994;1.796;2023-02-21T22:47:48;11.20;97.40
45283;DHT22;31023;44.994;1.796;2023-02-21T22:50:16;11.20;97.60
45283;DHT22;31023;44.994;1.796;2023-02-21T22:52:57;11.20;97.60
45283;DHT22;31023;44.994;1.796;2023-02-21T22:55:25;11.20;97.80
45283;DHT22;31023;44.994;1.796;2023-02-21T22:57:52;11.20;98.00
45283;DHT22;31023;44.994;1.796;2023-02-21T23:00:26;11.20;98.20
45283;DHT22;31023;44.994;1.796;2023-02-21T23:02:57;11.20;98.30
45283;DHT22;31023;44.994;1.796;2023-02-21T23:05:23;11.20;98.30
45283;DHT22;31023;44.994;1.796;2023-02-21T23:07:51;11.20;98.60
45283;DHT22;31023;44.994;1.796;2023-02-21T23:10:20;11.20;98.70
45283;DHT22;31023;44.994;1.796;2023-02-21T23:12:49;11.10;98.90
45283;DHT22;31023;44.994;1.796;2023-02-21T23:15:16;11.20;99.00
45283;DHT22;31023;44.994;1.796;2023-02-21T23:17:44;11.10;99.30
45283;DHT22;31023;44.994;1.796;2023-02-21T23:20:12;11.10;99.30
45283;DHT22;31023;44.994;1.796;2023-02-21T23:22:44;11.10;99.20
45283;DHT22;31023;44.994;1.796;2023-02-21T23:25:15;11.10;99.30
45283;DHT22;31023;44.994;1.796;2023-02-21T23:27:56;11.10;99.60
45283;DHT22;31023;44.994;1.796;2023-02-21T23:30:24;11.20;99.50
45283;DHT22;31023;44.994;1.796;2023-02-21T23:32:58;11.10;99.60
45283;DHT22;31023;44.994;1.796;2023-02-21T23:35:23;11.10;99.70
45283;DHT22;31023;44.994;1.796;2023-02-21T23:37:49;11.10;99.90
45283;DHT22;31023;44.994;1.796;2023-02-21T23:40:22;11.10;99.90
45283;DHT22;31023;44.994;1.796;2023-02-21T23:42:51;11.10;99.90
45283;DHT22;31023;44.994;1.796;2023-02-21T23:45:20;11.10;99.90
45283;DHT22;31023;44.994;1.796;2023-02-21T23:47:47;11.10;99.90
45283;DHT22;31023;44.994;1.796;2023-02-21T23:50:15;11.10;99.90
45283;DHT22;31023;44.994;1.796;2023-02-21T23:52:46;11.10;99.90
45283;DHT22;31023;44.994;1.796;2023-02-21T23:55:18;11.10;99.90
45283;DHT22;31023;44.994;1.796;2023-02-21T23:57:45;11.10;99.90
